Strona główna
METAR-TAF:

METAR-TAF

Lotnisko :

Port lotniczy Ko Samui

Ko Samui, Tajlandia

Szerokość geograficzna: 09-32-52N, Długość geograficzna: 100-03-44E, wysokość: 20 m

Aktualna obserwacja pogody

Raport powstał 13 minut temu, godzina 14:30 UTC
Wiatr 6 kt od południe
Temperatura 30°C
Wilgotność 79%
Ciśnienie 1010 hPa
Widzialność: 9000 m
Mało chmury na wysokości 2000 ft

METAR: VTSM 231430Z 17006KT 9000 FEW020 30/26 Q1010 NOSIG

czas: 21:43 (14:43 UTC)

Prognoza

Raport powstał 3 godziny i 43 minut temu, godzina 11:00 UTC
Prognoza ważna od 23 godzina 12 UTC do 24 godzina 12 UTC
Wiatr 5 kt od południowy wschód
Widzialność: 8000 m
Mało chmury na wysokości 2000 ft

TAF: VTSM 231100Z 2312/2412 13005KT 8000 FEW020

Obserwacja i prognoza pogody dla ponad 4000 lotnisk (raport METAR i TAF).

Dostępne stacje oznaczono żółtymi i czerwonymi punktami na mapie.

Najedź kursorem aby zobaczyć nazwę stacji.

Kliknij aby zobaczyć obserwacje i prognozy pogody.

Aby zmienić mapę: kliknij na zielony przycisk z czarnym krzyżykiem, aby powiększyć; na zielony przycisk z myślnikiem, aby pomniejszyć; na zielone strzałki, aby przejść do map sąsiednich.


METAR-TAF: